sensor_id;sensor_type;location;lat;lon;timestamp;temperature;humidity
4054;DHT22;2042;47.956;9.222;2023-11-21T00:00:00;6.50;1.00
4054;DHT22;2042;47.956;9.222;2023-11-21T00:02:26;6.50;1.00
4054;DHT22;2042;47.956;9.222;2023-11-21T00:04:55;6.50;1.00
4054;DHT22;2042;47.956;9.222;2023-11-21T00:07:20;6.40;1.00
4054;DHT22;2042;47.956;9.222;2023-11-21T00:09:47;6.40;1.00
4054;DHT22;2042;47.956;9.222;2023-11-21T00:12:12;6.30;1.00
4054;DHT22;2042;47.956;9.222;2023-11-21T00:14:40;6.30;1.00
4054;DHT22;2042;47.956;9.222;2023-11-21T00:17:06;6.30;1.00
4054;DHT22;2042;47.956;9.222;2023-11-21T00:19:32;6.40;1.00
4054;DHT22;2042;47.956;9.222;2023-11-21T00:21:59;6.40;1.00
4054;DHT22;2042;47.956;9.222;2023-11-21T00:24:25;6.50;1.00
4054;DHT22;2042;47.956;9.222;2023-11-21T00:26:51;6.50;1.00
4054;DHT22;2042;47.956;9.222;2023-11-21T00:29:17;6.50;1.00
4054;DHT22;2042;47.956;9.222;2023-11-21T00:31:44;6.50;1.00
4054;DHT22;2042;47.956;9.222;2023-11-21T00:34:11;6.50;1.00
4054;DHT22;2042;47.956;9.222;2023-11-21T00:36:37;6.50;1.00
4054;DHT22;2042;47.956;9.222;2023-11-21T00:39:03;6.50;1.00
4054;DHT22;2042;47.956;9.222;2023-11-21T00:41:31;6.50;1.00
4054;DHT22;2042;47.956;9.222;2023-11-21T00:43:57;6.50;1.00
4054;DHT22;2042;47.956;9.222;2023-11-21T00:46:23;6.40;1.00
4054;DHT22;2042;47.956;9.222;2023-11-21T00:48:50;6.40;1.00
4054;DHT22;2042;47.956;9.222;2023-11-21T00:51:15;6.40;1.00
4054;DHT22;2042;47.956;9.222;2023-11-21T00:53:41;6.40;1.00
4054;DHT22;2042;47.956;9.222;2023-11-21T00:56:07;6.40;1.00
4054;DHT22;2042;47.956;9.222;2023-11-21T00:58:34;6.40;1.00
4054;DHT22;2042;47.956;9.222;2023-11-21T01:01:00;6.40;1.00
4054;DHT22;2042;47.956;9.222;2023-11-21T01:03:26;6.40;1.00
4054;DHT22;2042;47.956;9.222;2023-11-21T01:05:52;6.40;1.00
4054;DHT22;2042;47.956;9.222;2023-11-21T01:08:17;6.40;1.00
4054;DHT22;2042;47.956;9.222;2023-11-21T01:10:43;6.30;1.00
4054;DHT22;2042;47.956;9.222;2023-11-21T01:13:09;6.30;1.00
4054;DHT22;2042;47.956;9.222;2023-11-21T01:15:36;6.20;1.00
4054;DHT22;2042;47.956;9.222;2023-11-21T01:18:01;6.10;1.00
4054;DHT22;2042;47.956;9.222;2023-11-21T01:20:27;6.00;1.00
4054;DHT22;2042;47.956;9.222;2023-11-21T01:22:52;5.90;1.00
4054;DHT22;2042;47.956;9.222;2023-11-21T01:25:19;5.90;1.70
4054;DHT22;2042;47.956;9.222;2023-11-21T01:27:46;5.80;2.90
4054;DHT22;2042;47.956;9.222;2023-11-21T01:30:12;5.80;3.90
4054;DHT22;2042;47.956;9.222;2023-11-21T01:32:39;5.80;5.00
4054;DHT22;2042;47.956;9.222;2023-11-21T01:35:05;5.70;6.00
4054;DHT22;2042;47.956;9.222;2023-11-21T01:37:32;5.70;7.00
4054;DHT22;2042;47.956;9.222;2023-11-21T01:39:59;5.70;7.60
4054;DHT22;2042;47.956;9.222;2023-11-21T01:42:26;5.70;8.80
4054;DHT22;2042;47.956;9.222;2023-11-21T01:44:52;5.70;9.80
4054;DHT22;2042;47.956;9.222;2023-11-21T01:47:19;5.70;10.70
4054;DHT22;2042;47.956;9.222;2023-11-21T01:49:47;5.60;11.40
4054;DHT22;2042;47.956;9.222;2023-11-21T01:52:13;5.60;12.20
4054;DHT22;2042;47.956;9.222;2023-11-21T01:54:41;5.60;13.00
4054;DHT22;2042;47.956;9.222;2023-11-21T01:57:06;5.60;13.90
4054;DHT22;2042;47.956;9.222;2023-11-21T01:59:36;5.60;14.50
4054;DHT22;2042;47.956;9.222;2023-11-21T02:02:06;5.60;14.90
4054;DHT22;2042;47.956;9.222;2023-11-21T02:04:35;5.60;15.70
4054;DHT22;2042;47.956;9.222;2023-11-21T02:07:05;5.60;16.50
4054;DHT22;2042;47.956;9.222;2023-11-21T02:09:33;5.60;17.30
4054;DHT22;2042;47.956;9.222;2023-11-21T02:12:00;5.60;18.00
4054;DHT22;2042;47.956;9.222;2023-11-21T02:14:26;5.60;18.40
4054;DHT22;2042;47.956;9.222;2023-11-21T02:16:54;5.60;18.80
4054;DHT22;2042;47.956;9.222;2023-11-21T02:19:21;5.60;19.40
4054;DHT22;2042;47.956;9.222;2023-11-21T02:21:50;5.50;19.90
4054;DHT22;2042;47.956;9.222;2023-11-21T02:24:20;5.60;20.60
4054;DHT22;2042;47.956;9.222;2023-11-21T02:26:45;5.50;20.90
4054;DHT22;2042;47.956;9.222;2023-11-21T02:29:11;5.50;21.50
4054;DHT22;2042;47.956;9.222;2023-11-21T02:31:39;5.50;21.80
4054;DHT22;2042;47.956;9.222;2023-11-21T02:34:14;5.50;21.90
4054;DHT22;2042;47.956;9.222;2023-11-21T02:36:40;5.50;22.10
4054;DHT22;2042;47.956;9.222;2023-11-21T02:39:05;5.50;22.70
4054;DHT22;2042;47.956;9.222;2023-11-21T02:41:33;5.50;23.20
4054;DHT22;2042;47.956;9.222;2023-11-21T02:44:00;5.50;23.50
4054;DHT22;2042;47.956;9.222;2023-11-21T02:46:26;5.50;24.00
4054;DHT22;2042;47.956;9.222;2023-11-21T02:48:51;5.50;24.20
4054;DHT22;2042;47.956;9.222;2023-11-21T02:51:20;5.50;24.60
4054;DHT22;2042;47.956;9.222;2023-11-21T02:53:45;5.50;25.10
4054;DHT22;2042;47.956;9.222;2023-11-21T02:56:12;5.40;25.80
4054;DHT22;2042;47.956;9.222;2023-11-21T02:58:41;5.40;25.60
4054;DHT22;2042;47.956;9.222;2023-11-21T03:01:07;5.40;26.00
4054;DHT22;2042;47.956;9.222;2023-11-21T03:03:32;5.40;26.80
4054;DHT22;2042;47.956;9.222;2023-11-21T03:05:58;5.50;26.70
4054;DHT22;2042;47.956;9.222;2023-11-21T03:08:24;5.40;27.00
4054;DHT22;2042;47.956;9.222;2023-11-21T03:10:49;5.40;27.90
4054;DHT22;2042;47.956;9.222;2023-11-21T03:13:15;5.50;27.80
4054;DHT22;2042;47.956;9.222;2023-11-21T03:15:41;5.50;28.20
4054;DHT22;2042;47.956;9.222;2023-11-21T03:18:08;5.50;28.60
4054;DHT22;2042;47.956;9.222;2023-11-21T03:20:33;5.50;28.70
4054;DHT22;2042;47.956;9.222;2023-11-21T03:23:00;5.50;28.90
4054;DHT22;2042;47.956;9.222;2023-11-21T03:25:26;5.40;28.80
4054;DHT22;2042;47.956;9.222;2023-11-21T03:27:51;5.40;28.80
4054;DHT22;2042;47.956;9.222;2023-11-21T03:30:17;5.50;29.00
4054;DHT22;2042;47.956;9.222;2023-11-21T03:32:43;5.40;29.10
4054;DHT22;2042;47.956;9.222;2023-11-21T03:35:08;5.40;29.20
4054;DHT22;2042;47.956;9.222;2023-11-21T03:37:34;5.40;29.60
4054;DHT22;2042;47.956;9.222;2023-11-21T03:40:00;5.40;29.80
4054;DHT22;2042;47.956;9.222;2023-11-21T03:42:26;5.40;30.00
4054;DHT22;2042;47.956;9.222;2023-11-21T03:44:52;5.40;30.20
4054;DHT22;2042;47.956;9.222;2023-11-21T03:47:18;5.40;30.60
4054;DHT22;2042;47.956;9.222;2023-11-21T03:49:44;5.40;31.00
4054;DHT22;2042;47.956;9.222;2023-11-21T03:52:11;5.40;31.10
4054;DHT22;2042;47.956;9.222;2023-11-21T03:54:37;5.40;31.30
4054;DHT22;2042;47.956;9.222;2023-11-21T03:57:03;5.30;31.50
4054;DHT22;2042;47.956;9.222;2023-11-21T03:59:29;5.30;31.60
4054;DHT22;2042;47.956;9.222;2023-11-21T04:01:57;5.30;31.50
4054;DHT22;2042;47.956;9.222;2023-11-21T04:04:23;5.20;31.40
4054;DHT22;2042;47.956;9.222;2023-11-21T04:06:49;5.20;31.20
4054;DHT22;2042;47.956;9.222;2023-11-21T04:09:14;5.10;31.30
4054;DHT22;2042;47.956;9.222;2023-11-21T04:11:40;5.00;31.30
4054;DHT22;2042;47.956;9.222;2023-11-21T04:14:06;5.00;31.30
4054;DHT22;2042;47.956;9.222;2023-11-21T04:16:32;4.90;31.20
4054;DHT22;2042;47.956;9.222;2023-11-21T04:18:57;4.90;31.40
4054;DHT22;2042;47.956;9.222;2023-11-21T04:21:23;4.80;31.40
4054;DHT22;2042;47.956;9.222;2023-11-21T04:23:49;4.80;31.30
4054;DHT22;2042;47.956;9.222;2023-11-21T04:26:15;4.70;31.40
4054;DHT22;2042;47.956;9.222;2023-11-21T04:28:41;4.70;32.00
4054;DHT22;2042;47.956;9.222;2023-11-21T04:31:07;4.70;32.30
4054;DHT22;2042;47.956;9.222;2023-11-21T04:33:33;4.70;32.60
4054;DHT22;2042;47.956;9.222;2023-11-21T04:35:58;4.80;33.30
4054;DHT22;2042;47.956;9.222;2023-11-21T04:38:24;4.80;33.80
4054;DHT22;2042;47.956;9.222;2023-11-21T04:40:49;4.90;34.30
4054;DHT22;2042;47.956;9.222;2023-11-21T04:43:15;4.90;34.70
4054;DHT22;2042;47.956;9.222;2023-11-21T04:45:41;5.00;35.00
4054;DHT22;2042;47.956;9.222;2023-11-21T04:48:07;5.00;35.30
4054;DHT22;2042;47.956;9.222;2023-11-21T04:50:34;5.00;35.50
4054;DHT22;2042;47.956;9.222;2023-11-21T04:53:00;5.10;35.90
4054;DHT22;2042;47.956;9.222;2023-11-21T04:55:26;5.10;36.30
4054;DHT22;2042;47.956;9.222;2023-11-21T04:57:53;5.10;36.40
4054;DHT22;2042;47.956;9.222;2023-11-21T05:00:19;5.10;36.50
4054;DHT22;2042;47.956;9.222;2023-11-21T05:02:46;5.10;36.70
4054;DHT22;2042;47.956;9.222;2023-11-21T05:05:12;5.10;36.70
4054;DHT22;2042;47.956;9.222;2023-11-21T05:07:39;5.10;36.80
4054;DHT22;2042;47.956;9.222;2023-11-21T05:10:06;5.10;36.90
4054;DHT22;2042;47.956;9.222;2023-11-21T05:12:35;5.10;36.90
4054;DHT22;2042;47.956;9.222;2023-11-21T05:15:05;5.10;37.00
4054;DHT22;2042;47.956;9.222;2023-11-21T05:17:37;5.10;37.10
4054;DHT22;2042;47.956;9.222;2023-11-21T05:20:05;5.10;37.10
4054;DHT22;2042;47.956;9.222;2023-11-21T05:22:34;5.10;37.10
4054;DHT22;2042;47.956;9.222;2023-11-21T05:25:00;5.10;37.20
4054;DHT22;2042;47.956;9.222;2023-11-21T05:27:26;5.10;37.30
4054;DHT22;2042;47.956;9.222;2023-11-21T05:29:51;5.10;37.40
4054;DHT22;2042;47.956;9.222;2023-11-21T05:32:17;5.20;37.50
4054;DHT22;2042;47.956;9.222;2023-11-21T05:34:43;5.20;37.70
4054;DHT22;2042;47.956;9.222;2023-11-21T05:37:08;5.20;37.80
4054;DHT22;2042;47.956;9.222;2023-11-21T05:39:34;5.10;37.80
4054;DHT22;2042;47.956;9.222;2023-11-21T05:42:01;5.10;37.90
4054;DHT22;2042;47.956;9.222;2023-11-21T05:44:27;5.20;38.20
4054;DHT22;2042;47.956;9.222;2023-11-21T05:46:52;5.20;38.30
4054;DHT22;2042;47.956;9.222;2023-11-21T05:49:18;5.20;38.40
4054;DHT22;2042;47.956;9.222;2023-11-21T05:51:47;5.20;38.50
4054;DHT22;2042;47.956;9.222;2023-11-21T05:54:13;5.20;38.50
4054;DHT22;2042;47.956;9.222;2023-11-21T05:56:39;5.20;38.60
4054;DHT22;2042;47.956;9.222;2023-11-21T05:59:04;5.20;38.70
4054;DHT22;2042;47.956;9.222;2023-11-21T06:01:31;5.20;38.70
4054;DHT22;2042;47.956;9.222;2023-11-21T06:03:57;5.10;38.70
4054;DHT22;2042;47.956;9.222;2023-11-21T06:06:23;5.10;38.70
4054;DHT22;2042;47.956;9.222;2023-11-21T06:08:50;5.10;38.70
4054;DHT22;2042;47.956;9.222;2023-11-21T06:11:15;5.10;38.80
4054;DHT22;2042;47.956;9.222;2023-11-21T06:13:42;5.10;38.80
4054;DHT22;2042;47.956;9.222;2023-11-21T06:16:08;5.10;38.90
4054;DHT22;2042;47.956;9.222;2023-11-21T06:18:34;5.10;38.90
4054;DHT22;2042;47.956;9.222;2023-11-21T06:21:00;5.10;39.00
4054;DHT22;2042;47.956;9.222;2023-11-21T06:23:26;5.10;39.10
4054;DHT22;2042;47.956;9.222;2023-11-21T06:25:52;5.10;39.10
4054;DHT22;2042;47.956;9.222;2023-11-21T06:28:18;5.10;39.30
4054;DHT22;2042;47.956;9.222;2023-11-21T06:30:44;5.10;39.40
4054;DHT22;2042;47.956;9.222;2023-11-21T06:33:10;5.10;39.40
4054;DHT22;2042;47.956;9.222;2023-11-21T06:35:36;5.10;39.50
4054;DHT22;2042;47.956;9.222;2023-11-21T06:38:02;5.10;39.60
4054;DHT22;2042;47.956;9.222;2023-11-21T06:40:28;5.10;39.70
4054;DHT22;2042;47.956;9.222;2023-11-21T06:42:54;5.10;39.80
4054;DHT22;2042;47.956;9.222;2023-11-21T06:45:19;5.10;39.80
4054;DHT22;2042;47.956;9.222;2023-11-21T06:47:48;5.10;39.80
4054;DHT22;2042;47.956;9.222;2023-11-21T06:50:14;5.20;40.00
4054;DHT22;2042;47.956;9.222;2023-11-21T06:52:40;5.20;40.10
4054;DHT22;2042;47.956;9.222;2023-11-21T06:55:06;5.20;40.20
4054;DHT22;2042;47.956;9.222;2023-11-21T06:57:33;5.20;40.20
4054;DHT22;2042;47.956;9.222;2023-11-21T06:59:59;5.20;40.20
4054;DHT22;2042;47.956;9.222;2023-11-21T07:02:25;5.20;40.20
4054;DHT22;2042;47.956;9.222;2023-11-21T07:04:51;5.20;40.20
4054;DHT22;2042;47.956;9.222;2023-11-21T07:07:17;5.20;40.20
4054;DHT22;2042;47.956;9.222;2023-11-21T07:09:43;5.20;40.40
4054;DHT22;2042;47.956;9.222;2023-11-21T07:12:09;5.20;40.40
4054;DHT22;2042;47.956;9.222;2023-11-21T07:14:36;5.30;40.50
4054;DHT22;2042;47.956;9.222;2023-11-21T07:17:04;5.20;40.40
4054;DHT22;2042;47.956;9.222;2023-11-21T07:19:30;5.20;40.40
4054;DHT22;2042;47.956;9.222;2023-11-21T07:21:56;5.30;40.70
4054;DHT22;2042;47.956;9.222;2023-11-21T07:24:22;5.30;40.70
4054;DHT22;2042;47.956;9.222;2023-11-21T07:26:48;5.30;40.80
4054;DHT22;2042;47.956;9.222;2023-11-21T07:29:14;5.40;40.90
4054;DHT22;2042;47.956;9.222;2023-11-21T07:31:40;5.40;40.90
4054;DHT22;2042;47.956;9.222;2023-11-21T07:34:06;5.40;41.10
4054;DHT22;2042;47.956;9.222;2023-11-21T07:36:33;5.50;41.40
4054;DHT22;2042;47.956;9.222;2023-11-21T07:38:59;5.60;41.50
4054;DHT22;2042;47.956;9.222;2023-11-21T07:41:24;5.60;41.60
4054;DHT22;2042;47.956;9.222;2023-11-21T07:43:50;5.60;41.60
4054;DHT22;2042;47.956;9.222;2023-11-21T07:46:16;5.70;41.70
4054;DHT22;2042;47.956;9.222;2023-11-21T07:48:42;5.70;41.70
4054;DHT22;2042;47.956;9.222;2023-11-21T07:51:08;5.70;41.80
4054;DHT22;2042;47.956;9.222;2023-11-21T07:53:35;5.80;41.90
4054;DHT22;2042;47.956;9.222;2023-11-21T07:56:08;5.90;42.80
4054;DHT22;2042;47.956;9.222;2023-11-21T07:58:36;6.00;42.30
4054;DHT22;2042;47.956;9.222;2023-11-21T08:01:02;6.20;42.80
4054;DHT22;2042;47.956;9.222;2023-11-21T08:03:29;6.30;42.90
4054;DHT22;2042;47.956;9.222;2023-11-21T08:05:58;6.50;43.20
4054;DHT22;2042;47.956;9.222;2023-11-21T08:08:24;6.60;43.40
4054;DHT22;2042;47.956;9.222;2023-11-21T08:10:50;6.60;43.30
4054;DHT22;2042;47.956;9.222;2023-11-21T08:13:25;6.60;43.20
4054;DHT22;2042;47.956;9.222;2023-11-21T08:15:54;6.70;43.40
4054;DHT22;2042;47.956;9.222;2023-11-21T08:18:19;6.80;43.60
4054;DHT22;2042;47.956;9.222;2023-11-21T08:20:45;6.90;44.00
4054;DHT22;2042;47.956;9.222;2023-11-21T08:23:16;7.00;44.10
4054;DHT22;2042;47.956;9.222;2023-11-21T08:25:45;7.10;44.20
4054;DHT22;2042;47.956;9.222;2023-11-21T08:28:11;7.20;44.20
4054;DHT22;2042;47.956;9.222;2023-11-21T08:30:37;7.30;44.30
4054;DHT22;2042;47.956;9.222;2023-11-21T08:33:03;7.40;44.50
4054;DHT22;2042;47.956;9.222;2023-11-21T08:35:29;7.60;44.70
4054;DHT22;2042;47.956;9.222;2023-11-21T08:37:55;7.70;44.40
4054;DHT22;2042;47.956;9.222;2023-11-21T08:40:21;7.80;44.40
4054;DHT22;2042;47.956;9.222;2023-11-21T08:42:47;8.00;44.40
4054;DHT22;2042;47.956;9.222;2023-11-21T08:45:16;8.10;43.90
4054;DHT22;2042;47.956;9.222;2023-11-21T08:47:43;8.20;43.30
4054;DHT22;2042;47.956;9.222;2023-11-21T08:50:10;8.20;41.00
4054;DHT22;2042;47.956;9.222;2023-11-21T08:52:37;8.20;39.70
4054;DHT22;2042;47.956;9.222;2023-11-21T08:55:05;8.30;39.50
4054;DHT22;2042;47.956;9.222;2023-11-21T08:57:36;8.40;39.80
4054;DHT22;2042;47.956;9.222;2023-11-21T09:00:03;8.80;40.70
4054;DHT22;2042;47.956;9.222;2023-11-21T09:02:33;9.20;38.40
4054;DHT22;2042;47.956;9.222;2023-11-21T09:05:06;10.00;38.90
4054;DHT22;2042;47.956;9.222;2023-11-21T09:07:32;10.80;33.00
4054;DHT22;2042;47.956;9.222;2023-11-21T09:09:57;11.70;27.90
4054;DHT22;2042;47.956;9.222;2023-11-21T09:12:23;12.40;6.10
4054;DHT22;2042;47.956;9.222;2023-11-21T09:14:52;12.40;1.00
4054;DHT22;2042;47.956;9.222;2023-11-21T09:17:17;12.00;1.00
4054;DHT22;2042;47.956;9.222;2023-11-21T09:19:44;11.50;1.00
4054;DHT22;2042;47.956;9.222;2023-11-21T09:22:12;11.10;1.00
4054;DHT22;2042;47.956;9.222;2023-11-21T09:24:38;10.80;1.00
4054;DHT22;2042;47.956;9.222;2023-11-21T09:27:04;10.50;1.00
4054;DHT22;2042;47.956;9.222;2023-11-21T09:29:30;10.50;1.00
4054;DHT22;2042;47.956;9.222;2023-11-21T09:31:57;10.50;1.00
4054;DHT22;2042;47.956;9.222;2023-11-21T09:34:25;10.40;1.00
4054;DHT22;2042;47.956;9.222;2023-11-21T09:36:51;10.30;1.00
4054;DHT22;2042;47.956;9.222;2023-11-21T09:39:17;10.20;1.00
4054;DHT22;2042;47.956;9.222;2023-11-21T09:41:52;10.10;1.00
4054;DHT22;2042;47.956;9.222;2023-11-21T09:44:45;9.90;1.00
4054;DHT22;2042;47.956;9.222;2023-11-21T09:47:15;9.70;1.00
4054;DHT22;2042;47.956;9.222;2023-11-21T09:49:48;9.60;1.00
4054;DHT22;2042;47.956;9.222;2023-11-21T09:52:36;9.50;1.00
4054;DHT22;2042;47.956;9.222;2023-11-21T09:55:04;9.50;1.00
4054;DHT22;2042;47.956;9.222;2023-11-21T09:57:31;9.50;1.00
4054;DHT22;2042;47.956;9.222;2023-11-21T10:00:00;9.60;1.00
4054;DHT22;2042;47.956;9.222;2023-11-21T10:02:33;9.90;1.00
4054;DHT22;2042;47.956;9.222;2023-11-21T10:05:02;11.10;1.00
4054;DHT22;2042;47.956;9.222;2023-11-21T10:07:31;12.60;1.00
4054;DHT22;2042;47.956;9.222;2023-11-21T10:09:58;15.00;1.00
4054;DHT22;2042;47.956;9.222;2023-11-21T10:12:26;17.70;1.00
4054;DHT22;2042;47.956;9.222;2023-11-21T10:14:53;19.70;1.00
4054;DHT22;2042;47.956;9.222;2023-11-21T10:17:23;20.30;1.00
4054;DHT22;2042;47.956;9.222;2023-11-21T10:19:53;19.60;1.00
4054;DHT22;2042;47.956;9.222;2023-11-21T10:22:20;18.40;1.00
4054;DHT22;2042;47.956;9.222;2023-11-21T10:24:46;17.30;1.00
4054;DHT22;2042;47.956;9.222;2023-11-21T10:27:11;16.40;1.00
4054;DHT22;2042;47.956;9.222;2023-11-21T10:29:39;15.70;1.00
4054;DHT22;2042;47.956;9.222;2023-11-21T10:32:05;15.20;1.00
4054;DHT22;2042;47.956;9.222;2023-11-21T10:34:31;14.90;1.00
4054;DHT22;2042;47.956;9.222;2023-11-21T10:36:57;14.60;1.00
4054;DHT22;2042;47.956;9.222;2023-11-21T10:39:24;14.60;1.00
4054;DHT22;2042;47.956;9.222;2023-11-21T10:41:54;14.70;1.00
4054;DHT22;2042;47.956;9.222;2023-11-21T10:44:20;15.50;1.00
4054;DHT22;2042;47.956;9.222;2023-11-21T10:46:51;16.30;1.00
4054;DHT22;2042;47.956;9.222;2023-11-21T10:49:20;17.20;1.00
4054;DHT22;2042;47.956;9.222;2023-11-21T10:51:47;17.40;1.00
4054;DHT22;2042;47.956;9.222;2023-11-21T10:54:21;17.00;1.00
4054;DHT22;2042;47.956;9.222;2023-11-21T10:56:54;16.30;1.00
4054;DHT22;2042;47.956;9.222;2023-11-21T10:59:22;16.60;1.00
4054;DHT22;2042;47.956;9.222;2023-11-21T11:01:51;16.90;1.00
4054;DHT22;2042;47.956;9.222;2023-11-21T11:04:19;16.50;1.00
4054;DHT22;2042;47.956;9.222;2023-11-21T11:06:52;15.90;1.00
4054;DHT22;2042;47.956;9.222;2023-11-21T11:09:19;15.00;1.00
4054;DHT22;2042;47.956;9.222;2023-11-21T11:11:46;14.20;1.00
4054;DHT22;2042;47.956;9.222;2023-11-21T11:14:12;14.10;1.00
4054;DHT22;2042;47.956;9.222;2023-11-21T11:16:39;15.30;1.00
4054;DHT22;2042;47.956;9.222;2023-11-21T11:19:09;17.20;1.00
4054;DHT22;2042;47.956;9.222;2023-11-21T11:28:02;23.10;1.00
4054;DHT22;2042;47.956;9.222;2023-11-21T11:33:36;24.90;1.00
4054;DHT22;2042;47.956;9.222;2023-11-21T11:38:45;24.30;1.00
4054;DHT22;2042;47.956;9.222;2023-11-21T11:41:11;24.00;1.00
4054;DHT22;2042;47.956;9.222;2023-11-21T11:43:37;23.60;1.00
4054;DHT22;2042;47.956;9.222;2023-11-21T11:46:13;21.70;1.00
4054;DHT22;2042;47.956;9.222;2023-11-21T11:48:41;19.50;1.00
4054;DHT22;2042;47.956;9.222;2023-11-21T11:51:11;17.60;1.00
4054;DHT22;2042;47.956;9.222;2023-11-21T11:53:41;16.20;1.00
4054;DHT22;2042;47.956;9.222;2023-11-21T11:56:32;14.90;1.00
4054;DHT22;2042;47.956;9.222;2023-11-21T11:59:01;13.90;1.00
4054;DHT22;2042;47.956;9.222;2023-11-21T12:01:33;13.40;1.00
4054;DHT22;2042;47.956;9.222;2023-11-21T12:06:46;12.50;1.00
4054;DHT22;2042;47.956;9.222;2023-11-21T12:09:23;12.50;1.00
4054;DHT22;2042;47.956;9.222;2023-11-21T12:11:50;12.50;1.00
4054;DHT22;2042;47.956;9.222;2023-11-21T12:14:16;12.50;1.00
4054;DHT22;2042;47.956;9.222;2023-11-21T12:16:42;12.50;1.00
4054;DHT22;2042;47.956;9.222;2023-11-21T12:19:12;12.50;1.00
4054;DHT22;2042;47.956;9.222;2023-11-21T12:21:38;12.50;1.00
4054;DHT22;2042;47.956;9.222;2023-11-21T12:24:06;12.50;1.00
4054;DHT22;2042;47.956;9.222;2023-11-21T12:26:34;12.20;1.00
4054;DHT22;2042;47.956;9.222;2023-11-21T12:29:01;11.90;1.00
4054;DHT22;2042;47.956;9.222;2023-11-21T12:31:30;11.60;1.00
4054;DHT22;2042;47.956;9.222;2023-11-21T12:33:56;11.40;1.00
4054;DHT22;2042;47.956;9.222;2023-11-21T12:36:22;11.30;1.00
4054;DHT22;2042;47.956;9.222;2023-11-21T12:38:47;11.20;1.00
4054;DHT22;2042;47.956;9.222;2023-11-21T12:41:13;11.20;1.00
4054;DHT22;2042;47.956;9.222;2023-11-21T12:43:41;11.30;1.00
4054;DHT22;2042;47.956;9.222;2023-11-21T12:46:10;11.20;1.00
4054;DHT22;2042;47.956;9.222;2023-11-21T12:48:42;11.10;1.00
4054;DHT22;2042;47.956;9.222;2023-11-21T12:51:09;10.80;1.00
4054;DHT22;2042;47.956;9.222;2023-11-21T12:53:37;10.70;1.00
4054;DHT22;2042;47.956;9.222;2023-11-21T12:56:11;10.40;1.00
4054;DHT22;2042;47.956;9.222;2023-11-21T12:58:38;10.30;1.00
4054;DHT22;2042;47.956;9.222;2023-11-21T13:01:07;10.40;1.00
4054;DHT22;2042;47.956;9.222;2023-11-21T13:03:40;10.60;1.00
4054;DHT22;2042;47.956;9.222;2023-11-21T13:06:08;10.70;1.00
4054;DHT22;2042;47.956;9.222;2023-11-21T13:08:34;10.80;1.00
4054;DHT22;2042;47.956;9.222;2023-11-21T13:10:59;10.80;1.00
4054;DHT22;2042;47.956;9.222;2023-11-21T13:13:28;10.80;1.00
4054;DHT22;2042;47.956;9.222;2023-11-21T13:15:56;10.80;1.00
4054;DHT22;2042;47.956;9.222;2023-11-21T13:18:25;10.80;1.00
4054;DHT22;2042;47.956;9.222;2023-11-21T13:20:58;10.90;1.00
4054;DHT22;2042;47.956;9.222;2023-11-21T13:23:24;11.10;1.00
4054;DHT22;2042;47.956;9.222;2023-11-21T13:25:51;11.10;1.00
4054;DHT22;2042;47.956;9.222;2023-11-21T13:28:17;11.20;1.00
4054;DHT22;2042;47.956;9.222;2023-11-21T13:30:50;11.20;1.00
4054;DHT22;2042;47.956;9.222;2023-11-21T13:33:18;11.20;1.00
4054;DHT22;2042;47.956;9.222;2023-11-21T13:35:47;11.20;1.00
4054;DHT22;2042;47.956;9.222;2023-11-21T13:38:15;11.10;1.00
4054;DHT22;2042;47.956;9.222;2023-11-21T13:40:51;11.00;1.00
4054;DHT22;2042;47.956;9.222;2023-11-21T13:43:23;10.70;1.00
4054;DHT22;2042;47.956;9.222;2023-11-21T13:45:52;10.40;1.00
4054;DHT22;2042;47.956;9.222;2023-11-21T13:48:27;10.20;1.00
4054;DHT22;2042;47.956;9.222;2023-11-21T13:51:06;10.10;1.00
4054;DHT22;2042;47.956;9.222;2023-11-21T13:53:47;9.90;1.00
4054;DHT22;2042;47.956;9.222;2023-11-21T13:56:18;10.00;1.00
4054;DHT22;2042;47.956;9.222;2023-11-21T13:58:51;10.10;1.00
4054;DHT22;2042;47.956;9.222;2023-11-21T14:01:25;10.30;1.00
4054;DHT22;2042;47.956;9.222;2023-11-21T14:03:58;10.30;1.00
4054;DHT22;2042;47.956;9.222;2023-11-21T14:06:46;10.20;1.00
4054;DHT22;2042;47.956;9.222;2023-11-21T14:09:22;10.10;1.00
4054;DHT22;2042;47.956;9.222;2023-11-21T14:11:52;10.10;1.00
4054;DHT22;2042;47.956;9.222;2023-11-21T14:14:19;10.00;1.00
4054;DHT22;2042;47.956;9.222;2023-11-21T14:16:46;10.00;1.00
4054;DHT22;2042;47.956;9.222;2023-11-21T14:19:11;9.80;1.00
4054;DHT22;2042;47.956;9.222;2023-11-21T14:21:44;9.60;1.00
4054;DHT22;2042;47.956;9.222;2023-11-21T14:24:11;9.40;1.00
4054;DHT22;2042;47.956;9.222;2023-11-21T14:26:40;9.30;1.00
4054;DHT22;2042;47.956;9.222;2023-11-21T14:29:06;9.20;1.00
4054;DHT22;2042;47.956;9.222;2023-11-21T14:31:33;9.20;1.00
4054;DHT22;2042;47.956;9.222;2023-11-21T14:33:59;9.10;1.00
4054;DHT22;2042;47.956;9.222;2023-11-21T14:36:28;9.10;1.00
4054;DHT22;2042;47.956;9.222;2023-11-21T14:38:54;9.00;1.00
4054;DHT22;2042;47.956;9.222;2023-11-21T14:41:19;8.90;1.00
4054;DHT22;2042;47.956;9.222;2023-11-21T14:43:45;8.70;1.00
4054;DHT22;2042;47.956;9.222;2023-11-21T14:46:13;8.60;1.00
4054;DHT22;2042;47.956;9.222;2023-11-21T14:48:42;8.50;1.00
4054;DHT22;2042;47.956;9.222;2023-11-21T14:51:11;8.50;1.00
4054;DHT22;2042;47.956;9.222;2023-11-21T14:53:57;8.40;1.00
4054;DHT22;2042;47.956;9.222;2023-11-21T14:56:32;8.40;1.00
4054;DHT22;2042;47.956;9.222;2023-11-21T14:59:00;8.30;1.00
4054;DHT22;2042;47.956;9.222;2023-11-21T15:01:32;8.30;1.00
4054;DHT22;2042;47.956;9.222;2023-11-21T15:04:21;8.20;1.00
4054;DHT22;2042;47.956;9.222;2023-11-21T15:07:01;8.20;1.00
4054;DHT22;2042;47.956;9.222;2023-11-21T15:09:27;8.10;1.00
4054;DHT22;2042;47.956;9.222;2023-11-21T15:12:02;8.00;1.00
4054;DHT22;2042;47.956;9.222;2023-11-21T15:14:50;8.00;1.00
4054;DHT22;2042;47.956;9.222;2023-11-21T15:17:20;7.90;1.00
4054;DHT22;2042;47.956;9.222;2023-11-21T15:19:52;7.80;1.00
4054;DHT22;2042;47.956;9.222;2023-11-21T15:22:18;7.60;1.00
4054;DHT22;2042;47.956;9.222;2023-11-21T15:24:44;7.60;1.00
4054;DHT22;2042;47.956;9.222;2023-11-21T15:27:12;7.50;1.00
4054;DHT22;2042;47.956;9.222;2023-11-21T15:29:39;7.50;1.00
4054;DHT22;2042;47.956;9.222;2023-11-21T15:32:06;7.40;1.00
4054;DHT22;2042;47.956;9.222;2023-11-21T15:34:33;7.40;1.00
4054;DHT22;2042;47.956;9.222;2023-11-21T15:36:59;7.30;1.00
4054;DHT22;2042;47.956;9.222;2023-11-21T15:39:24;7.20;1.00
4054;DHT22;2042;47.956;9.222;2023-11-21T15:41:58;7.20;1.00
4054;DHT22;2042;47.956;9.222;2023-11-21T15:44:24;7.20;1.00
4054;DHT22;2042;47.956;9.222;2023-11-21T15:46:52;7.10;1.00
4054;DHT22;2042;47.956;9.222;2023-11-21T15:49:17;7.10;1.00
4054;DHT22;2042;47.956;9.222;2023-11-21T15:51:47;7.00;1.00
4054;DHT22;2042;47.956;9.222;2023-11-21T15:54:21;7.00;1.00
4054;DHT22;2042;47.956;9.222;2023-11-21T15:56:48;7.00;1.00
4054;DHT22;2042;47.956;9.222;2023-11-21T15:59:14;7.00;1.00
4054;DHT22;2042;47.956;9.222;2023-11-21T16:01:42;6.90;1.00
4054;DHT22;2042;47.956;9.222;2023-11-21T16:04:10;6.90;1.00
4054;DHT22;2042;47.956;9.222;2023-11-21T16:06:37;6.80;1.00
4054;DHT22;2042;47.956;9.222;2023-11-21T16:09:05;6.80;1.00
4054;DHT22;2042;47.956;9.222;2023-11-21T16:11:38;6.80;1.00
4054;DHT22;2042;47.956;9.222;2023-11-21T16:14:03;6.70;1.00
4054;DHT22;2042;47.956;9.222;2023-11-21T16:16:29;6.70;2.30
4054;DHT22;2042;47.956;9.222;2023-11-21T16:18:54;6.70;3.10
4054;DHT22;2042;47.956;9.222;2023-11-21T16:21:20;6.60;4.40
4054;DHT22;2042;47.956;9.222;2023-11-21T16:23:46;6.50;5.10
4054;DHT22;2042;47.956;9.222;2023-11-21T16:26:12;6.40;5.20
4054;DHT22;2042;47.956;9.222;2023-11-21T16:28:38;6.20;5.90
4054;DHT22;2042;47.956;9.222;2023-11-21T16:31:04;6.10;7.20
4054;DHT22;2042;47.956;9.222;2023-11-21T16:33:30;6.10;8.10
4054;DHT22;2042;47.956;9.222;2023-11-21T16:35:55;6.10;9.60
4054;DHT22;2042;47.956;9.222;2023-11-21T16:38:21;6.10;10.30